Time;durP1;ratioP1;P1;durP2;ratioP2;P2;SDS_P1;SDS_P2;PMS_P1;PMS_P2;Temp;Humidity;BMP_temperature;BMP_pressure;BME280_temperature;BME280_humidity;BME280_pressure;Samples;Min_cycle;Max_cycle;Signal;HPM_P1;HPM_P2
2021/03/26 00:01:46;;;;;;;18.02;8.27;;;;;;;5.65;77.53;99345.25;5047651;28;20075;-69
2021/03/26 00:04:13;;;;;;;13.35;7.85;;;;;;;5.53;78.22;99350.06;5047403;28;20036;-70
2021/03/26 00:06:41;;;;;;;16.00;8.20;;;;;;;5.38;78.10;99338.22;5042821;28;21578;-69
2021/03/26 00:09:11;;;;;;;17.88;8.63;;;;;;;5.51;77.28;99353.91;5035348;28;20380;-70
2021/03/26 00:11:36;;;;;;;15.48;8.43;;;;;;;5.34;78.03;99352.94;5047534;28;20398;-69
2021/03/26 00:14:02;;;;;;;21.20;8.35;;;;;;;5.42;77.81;99343.13;5050578;28;20112;-70
2021/03/26 00:16:27;;;;;;;21.02;9.27;;;;;;;5.27;78.53;99350.06;5042683;28;20037;-70
2021/03/26 00:18:53;;;;;;;16.50;9.32;;;;;;;5.17;78.68;99346.63;5035723;28;20045;-69
2021/03/26 00:21:19;;;;;;;20.52;9.80;;;;;;;5.21;78.83;99351.53;5042637;28;20494;-70
2021/03/26 00:23:45;;;;;;;23.10;9.25;;;;;;;5.18;78.31;99359.00;5040069;28;20037;-68
2021/03/26 00:26:10;;;;;;;19.50;9.10;;;;;;;5.07;78.44;99352.06;5045874;28;20017;-69
2021/03/26 00:28:36;;;;;;;17.35;9.18;;;;;;;5.00;78.35;99333.06;5045358;28;20510;-69
2021/03/26 00:31:01;;;;;;;16.45;8.10;;;;;;;5.20;77.69;99354.34;5050425;28;20032;-69
2021/03/26 00:33:27;;;;;;;16.90;8.75;;;;;;;5.04;78.34;99350.53;5053673;28;20035;-69
2021/03/26 00:35:54;;;;;;;22.10;9.75;;;;;;;5.08;78.49;99339.47;5048027;28;20025;-70
2021/03/26 00:38:20;;;;;;;16.67;8.85;;;;;;;5.00;78.55;99351.84;5050265;28;20021;-69
2021/03/26 00:40:46;;;;;;;21.10;9.05;;;;;;;5.07;79.13;99348.53;5050027;28;20025;-69
2021/03/26 00:43:11;;;;;;;15.25;8.27;;;;;;;5.03;78.92;99342.63;5041322;28;20021;-69
2021/03/26 00:45:37;;;;;;;17.05;8.43;;;;;;;5.08;79.25;99344.84;5039352;28;20025;-69
2021/03/26 00:48:03;;;;;;;20.60;9.57;;;;;;;5.08;79.03;99336.81;5044218;28;20029;-70
2021/03/26 00:50:36;;;;;;;17.67;8.50;;;;;;;5.16;78.40;99351.16;5049352;28;20028;-70
2021/03/26 00:53:04;;;;;;;18.92;9.00;;;;;;;5.17;78.06;99351.97;5036040;28;20056;-69
2021/03/26 00:55:30;;;;;;;17.67;9.32;;;;;;;5.11;78.12;99349.91;5048438;28;20054;-69
2021/03/26 00:57:55;;;;;;;18.90;8.98;;;;;;;5.14;78.20;99342.41;5047758;28;20418;-69
2021/03/26 01:00:24;;;;;;;16.05;8.82;;;;;;;5.02;78.37;99341.78;5046911;28;20024;-70
2021/03/26 01:02:49;;;;;;;14.57;8.63;;;;;;;4.97;78.59;99346.75;5042601;28;20114;-69
2021/03/26 01:05:20;;;;;;;16.08;9.07;;;;;;;4.91;79.38;99344.72;5053618;28;20432;-69
2021/03/26 01:07:47;;;;;;;16.98;7.95;;;;;;;4.85;79.84;99342.66;5040086;28;20041;-69
2021/03/26 01:10:14;;;;;;;19.08;8.77;;;;;;;4.82;79.73;99345.63;5038449;28;20486;-69
2021/03/26 01:12:39;;;;;;;15.20;7.93;;;;;;;4.87;79.44;99348.69;5038494;28;20033;-69
2021/03/26 01:15:08;;;;;;;17.38;8.73;;;;;;;4.72;79.24;99336.84;5039556;28;20364;-69
2021/03/26 01:17:33;;;;;;;17.23;8.70;;;;;;;4.77;79.71;99340.75;5049537;28;20024;-70
2021/03/26 01:19:58;;;;;;;14.98;8.80;;;;;;;4.67;79.69;99341.81;5050382;28;20041;-69
2021/03/26 01:22:24;;;;;;;15.43;8.35;;;;;;;4.64;79.36;99347.44;5035515;28;20056;-69
2021/03/26 01:24:49;;;;;;;12.75;7.32;;;;;;;4.61;79.91;99338.75;5039671;28;20021;-69
2021/03/26 01:27:15;;;;;;;15.43;9.00;;;;;;;4.32;79.98;99327.34;5034163;28;20056;-69
2021/03/26 01:29:40;;;;;;;22.00;7.93;;;;;;;4.27;80.31;99321.59;5046886;28;20376;-69
2021/03/26 01:32:06;;;;;;;18.77;8.43;;;;;;;4.26;81.23;99334.16;5050852;28;20398;-69
2021/03/26 01:34:31;;;;;;;13.70;7.85;;;;;;;4.24;81.25;99340.66;5049875;28;20096;-70
2021/03/26 01:36:57;;;;;;;13.60;7.88;;;;;;;4.18;81.24;99339.44;5033685;28;20025;-69
2021/03/26 01:39:22;;;;;;;16.40;7.25;;;;;;;4.16;81.39;99318.13;5038229;28;20482;-69
2021/03/26 01:41:48;;;;;;;15.52;7.82;;;;;;;4.17;81.39;99335.91;5053617;28;20513;-70
2021/03/26 01:44:16;;;;;;;13.77;7.05;;;;;;;4.28;81.11;99342.91;5050060;28;20024;-69
2021/03/26 01:46:42;;;;;;;17.70;8.02;;;;;;;4.06;81.16;99321.88;5044216;28;20037;-69
2021/03/26 01:49:08;;;;;;;18.10;8.35;;;;;;;4.18;80.92;99332.22;5046868;28;20024;-70
2021/03/26 01:51:37;;;;;;;15.85;7.68;;;;;;;4.03;80.73;99316.81;5045338;28;20035;-69
2021/03/26 01:54:09;;;;;;;16.00;7.93;;;;;;;3.89;81.75;99326.19;5053833;28;20429;-69
2021/03/26 01:56:34;;;;;;;15.15;8.82;;;;;;;3.78;82.38;99329.06;5053023;28;20052;-69
2021/03/26 01:59:00;;;;;;;18.52;7.95;;;;;;;3.87;82.43;99329.00;5037620;28;20061;-69
2021/03/26 02:01:47;;;;;;;14.25;7.68;;;;;;;3.70;81.88;99329.78;5051519;28;20025;-69
2021/03/26 02:04:23;;;;;;;18.42;8.23;;;;;;;3.60;82.05;99327.13;5047440;28;20115;-69
2021/03/26 02:06:50;;;;;;;14.52;7.90;;;;;;;3.56;82.01;99325.72;5041712;28;20025;-69
2021/03/26 02:09:19;;;;;;;18.55;7.72;;;;;;;3.55;82.53;99317.88;5046916;28;20536;-69
2021/03/26 02:11:51;;;;;;;14.68;7.47;;;;;;;3.78;82.27;99321.03;5046459;28;20037;-69
2021/03/26 02:14:20;;;;;;;16.55;8.52;;;;;;;3.80;82.10;99313.69;5039880;28;20033;-69
2021/03/26 02:16:47;;;;;;;16.35;6.43;;;;;;;3.90;82.10;99322.50;5040473;28;20395;-69
2021/03/26 02:19:31;;;;;;;17.13;7.82;;;;;;;3.99;81.35;99313.59;5038481;28;20029;-70
2021/03/26 02:21:56;;;;;;;14.38;7.15;;;;;;;4.15;81.37;99313.78;5051472;28;20499;-70
2021/03/26 02:24:24;;;;;;;14.98;7.30;;;;;;;4.07;80.57;99313.69;5053056;28;20119;-69
2021/03/26 02:26:51;;;;;;;18.23;7.32;;;;;;;4.09;80.33;99316.25;5052159;28;20552;-69
2021/03/26 02:29:26;;;;;;;14.75;6.45;;;;;;;3.85;81.11;99304.25;5037891;28;20502;-69
2021/03/26 02:31:58;;;;;;;15.50;8.75;;;;;;;3.74;81.53;99313.28;5044025;28;20021;-69
2021/03/26 02:34:24;;;;;;;16.13;8.20;;;;;;;3.62;82.36;99322.50;5049705;28;20025;-69
2021/03/26 02:37:08;;;;;;;13.32;7.35;;;;;;;3.52;82.65;99319.00;5049276;28;20061;-69
2021/03/26 02:39:46;;;;;;;18.58;7.25;;;;;;;3.47;83.10;99318.59;5041476;28;20025;-69
2021/03/26 02:42:25;;;;;;;10.85;6.50;;;;;;;3.38;83.08;99322.13;5052249;28;20021;-69
2021/03/26 02:44:54;;;;;;;20.38;7.68;;;;;;;3.36;83.42;99308.91;5052696;28;20040;-70
2021/03/26 02:47:25;;;;;;;10.47;6.43;;;;;;;3.35;83.64;99309.03;5047228;28;20036;-69
2021/03/26 02:50:03;;;;;;;15.30;7.78;;;;;;;3.20;83.29;99290.81;5034281;28;20279;-69
2021/03/26 02:52:45;;;;;;;14.95;7.13;;;;;;;3.25;83.09;99301.91;5050531;28;20094;-69
2021/03/26 02:55:32;;;;;;;20.08;7.72;;;;;;;3.19;82.45;99301.63;5032931;28;20037;-68
2021/03/26 02:58:12;;;;;;;15.57;8.27;;;;;;;3.11;83.63;99301.50;5043683;28;20029;-70
2021/03/26 03:00:49;;;;;;;18.10;8.43;;;;;;;3.06;83.54;99299.25;5046568;28;20413;-69
2021/03/26 03:03:17;;;;;;;19.23;9.48;;;;;;;3.04;84.14;99310.09;5037650;28;20037;-69
2021/03/26 03:05:46;;;;;;;18.65;9.48;;;;;;;2.92;84.62;99311.25;5043076;28;20121;-69
2021/03/26 03:08:25;;;;;;;19.77;9.63;;;;;;;2.80;84.85;99318.56;5049271;28;20556;-69
2021/03/26 03:10:56;;;;;;;16.95;9.52;;;;;;;2.76;85.04;99316.31;5050124;28;20119;-69
2021/03/26 03:13:30;;;;;;;17.08;8.68;;;;;;;2.80;85.50;99310.56;5034665;28;20040;-69
2021/03/26 03:16:07;;;;;;;20.58;9.65;;;;;;;2.67;85.52;99320.66;5048512;28;20076;-69
2021/03/26 03:18:43;;;;;;;14.95;8.70;;;;;;;2.60;85.48;99317.72;5051775;28;20075;-69
2021/03/26 03:21:23;;;;;;;19.17;9.02;;;;;;;2.50;85.35;99311.53;5047243;28;20104;-69
2021/03/26 03:23:57;;;;;;;16.65;9.55;;;;;;;2.35;85.53;99294.22;5037987;28;20029;-69
2021/03/26 03:26:37;;;;;;;14.95;9.70;;;;;;;2.40;85.35;99311.50;5033375;28;20036;-70
2021/03/26 03:29:27;;;;;;;17.00;9.90;;;;;;;2.40;85.86;99313.34;5042870;28;20036;-69
2021/03/26 03:32:00;;;;;;;;;;;;;;;2.38;86.18;99309.94;5042088;28;20034;-69
2021/03/26 03:34:31;;;;;;;18.45;8.57;;;;;;;2.29;86.43;99300.94;5046850;28;19957;-69
2021/03/26 03:37:17;;;;;;;22.15;9.55;;;;;;;2.30;86.99;99301.78;5038759;28;20401;-69
2021/03/26 03:39:52;;;;;;;20.45;9.20;;;;;;;2.42;87.49;99308.72;5051193;28;20029;-70
2021/03/26 03:42:25;;;;;;;18.48;10.40;;;;;;;2.54;87.09;99304.06;5048077;28;20071;-70
2021/03/26 03:45:00;;;;;;;18.85;9.52;;;;;;;2.89;85.87;99297.31;5046350;28;20418;-71
2021/03/26 03:47:37;;;;;;;20.63;8.98;;;;;;;2.99;85.12;99304.34;5054762;28;20032;-69
2021/03/26 03:50:20;;;;;;;14.95;8.43;;;;;;;2.91;84.86;99317.59;5051091;28;20076;-69
2021/03/26 03:53:03;;;;;;;21.55;9.57;;;;;;;2.87;84.62;99305.47;5046612;28;20092;-69
2021/03/26 03:55:47;;;;;;;17.33;8.20;;;;;;;2.84;84.73;99311.09;5055086;28;20521;-70
2021/03/26 03:58:22;;;;;;;14.63;7.82;;;;;;;2.97;83.72;99302.81;5062447;22;20086;-69
2021/03/26 04:01:01;;;;;;;16.45;8.50;;;;;;;2.82;84.19;99297.88;5054554;28;20403;-70
2021/03/26 04:03:36;;;;;;;13.80;7.68;;;;;;;2.89;84.21;99290.16;5046999;28;20127;-70
2021/03/26 04:06:33;;;;;;;25.27;8.13;;;;;;;2.90;84.37;99301.69;5035476;28;20034;-70
2021/03/26 04:09:05;;;;;;;21.05;9.07;;;;;;;2.88;85.13;99290.28;5044549;28;20051;-70
2021/03/26 04:11:51;;;;;;;15.93;9.15;;;;;;;2.88;85.09;99288.44;5035364;28;20025;-70
2021/03/26 04:14:55;;;;;;;22.45;9.73;;;;;;;3.05;84.86;99294.91;5050524;28;20109;-70
2021/03/26 04:17:25;;;;;;;16.65;8.95;;;;;;;3.03;84.96;99302.22;5035639;28;20088;-70
2021/03/26 04:20:05;;;;;;;15.35;8.60;;;;;;;2.98;84.50;99294.63;5033683;28;20022;-70
2021/03/26 04:22:36;;;;;;;17.77;9.30;;;;;;;2.90;84.07;99299.84;5031702;28;20029;-70
2021/03/26 04:25:15;;;;;;;19.88;9.93;;;;;;;2.94;84.28;99289.72;5028272;28;20067;-68
2021/03/26 04:27:44;;;;;;;17.67;9.32;;;;;;;3.05;84.54;99303.75;5030246;28;20025;-68
2021/03/26 04:30:32;;;;;;;16.00;8.63;;;;;;;3.17;84.42;99304.47;5020976;28;20539;-68
2021/03/26 04:32:58;;;;;;;16.33;8.65;;;;;;;3.23;84.00;99289.66;5029232;28;20109;-68
2021/03/26 04:35:26;;;;;;;14.52;8.07;;;;;;;3.32;84.02;99293.28;5027034;28;20095;-68
2021/03/26 04:38:07;;;;;;;18.83;9.77;;;;;;;3.57;83.72;99298.00;5016642;28;20504;-68
2021/03/26 04:41:01;;;;;;;14.20;7.70;;;;;;;3.63;83.52;99286.72;5036331;28;20082;-68
2021/03/26 04:43:35;;;;;;;14.10;8.15;;;;;;;3.58;83.26;99283.63;5018483;28;20050;-69
2021/03/26 04:46:20;;;;;;;13.40;7.50;;;;;;;3.71;83.53;99286.81;5025143;28;20047;-68
2021/03/26 04:49:22;;;;;;;18.42;8.00;;;;;;;3.62;83.21;99292.22;5028204;28;20034;-68
2021/03/26 04:52:02;;;;;;;15.00;7.82;;;;;;;3.59;82.39;99288.00;5030970;28;20052;-68
2021/03/26 04:54:36;;;;;;;21.90;8.63;;;;;;;3.63;81.82;99284.03;5014994;28;20179;-68
2021/03/26 04:57:28;;;;;;;14.45;8.32;;;;;;;3.43;82.19;99277.94;5032745;28;20163;-68
2021/03/26 04:59:53;;;;;;;15.90;8.48;;;;;;;3.40;82.08;99288.06;5031777;28;20495;-68
2021/03/26 05:02:21;;;;;;;20.45;8.82;;;;;;;3.25;82.11;99279.69;5029862;28;20095;-68
2021/03/26 05:04:50;;;;;;;24.23;9.15;;;;;;;3.09;82.86;99274.91;5014299;28;20111;-68
2021/03/26 05:07:20;;;;;;;21.25;9.45;;;;;;;3.02;83.25;99280.00;5020064;28;20060;-68
2021/03/26 05:09:50;;;;;;;18.15;8.82;;;;;;;2.98;83.45;99281.25;5025592;28;20068;-68
2021/03/26 05:12:24;;;;;;;16.42;9.10;;;;;;;2.94;83.99;99271.03;5019298;28;20034;-68
2021/03/26 05:14:57;;;;;;;26.83;10.77;;;;;;;2.90;84.33;99267.78;5014312;28;20034;-68
2021/03/26 05:17:30;;;;;;;19.13;10.35;;;;;;;2.88;84.96;99268.91;5024170;28;20057;-70
2021/03/26 05:20:05;;;;;;;20.05;10.48;;;;;;;2.84;85.23;99279.88;5029287;28;20122;-70
2021/03/26 05:22:39;;;;;;;19.80;11.07;;;;;;;3.01;84.93;99264.97;5029674;28;20033;-68
2021/03/26 05:25:13;;;;;;;20.98;10.60;;;;;;;2.94;84.76;99271.84;5032992;28;20115;-72
2021/03/26 05:27:42;;;;;;;20.27;9.88;;;;;;;2.91;85.07;99268.59;5032151;28;20078;-74
2021/03/26 05:30:10;;;;;;;18.10;9.57;;;;;;;2.91;85.48;99273.94;5032899;28;20383;-71
2021/03/26 05:32:44;;;;;;;15.80;8.95;;;;;;;3.00;85.03;99270.44;5031716;28;20483;-69
2021/03/26 05:35:21;;;;;;;19.05;9.73;;;;;;;3.08;84.37;99274.06;5029298;28;20030;-70
2021/03/26 05:38:18;;;;;;;21.05;10.23;;;;;;;3.22;83.40;99272.78;5028232;28;20029;-70
2021/03/26 05:40:46;;;;;;;20.80;9.55;;;;;;;3.41;83.88;99268.38;5029765;28;20041;-72
2021/03/26 05:43:14;;;;;;;16.98;9.82;;;;;;;3.59;83.24;99271.09;5032241;28;20063;-70
2021/03/26 05:45:44;;;;;;;24.70;9.73;;;;;;;4.17;80.70;99268.97;5032712;28;20028;-70
2021/03/26 05:48:20;;;;;;;19.52;8.77;;;;;;;5.22;76.97;99271.88;5030986;28;20024;-69
2021/03/26 05:51:13;;;;;;;16.10;9.10;;;;;;;6.26;73.45;99263.66;5025102;28;20037;-70
2021/03/26 05:53:50;;;;;;;16.55;8.07;;;;;;;7.13;71.08;99257.84;5031320;28;20021;-70
2021/03/26 05:56:27;;;;;;;15.77;8.68;;;;;;;7.72;67.81;99261.03;5030914;28;20036;-69
2021/03/26 05:59:19;;;;;;;16.83;8.35;;;;;;;7.78;65.82;99262.19;5031046;28;20037;-69
2021/03/26 06:02:04;;;;;;;14.93;8.50;;;;;;;7.69;66.48;99245.22;5032158;28;20021;-70
2021/03/26 06:04:58;;;;;;;19.65;10.30;;;;;;;8.48;63.99;99266.75;5032591;28;20097;-73
2021/03/26 06:07:46;;;;;;;16.23;9.05;;;;;;;9.31;62.62;99243.47;5033337;28;20112;-73
2021/03/26 06:10:32;;;;;;;14.48;8.30;;;;;;;9.97;60.08;99259.78;5031731;28;20030;-71
2021/03/26 06:13:32;;;;;;;13.30;7.60;;;;;;;10.49;59.82;99256.91;5028295;28;20022;-72
2021/03/26 06:16:36;;;;;;;16.52;7.65;;;;;;;10.62;57.14;99256.19;5030920;28;20041;-72
2021/03/26 06:19:19;;;;;;;13.02;8.07;;;;;;;11.95;54.53;99259.97;4987298;28;20060;-70
2021/03/26 06:21:57;;;;;;;20.38;10.90;;;;;;;11.99;53.26;99253.06;5036959;28;20029;-70
2021/03/26 06:24:41;;;;;;;21.77;11.27;;;;;;;12.05;52.49;99260.44;5027736;28;20021;-70
2021/03/26 06:27:09;;;;;;;21.45;10.77;;;;;;;12.66;53.29;99262.28;5021608;28;20043;-70
2021/03/26 06:29:52;;;;;;;17.08;9.32;;;;;;;11.70;54.20;99258.72;5021148;28;20387;-70
2021/03/26 06:32:39;;;;;;;16.80;9.82;;;;;;;9.37;59.92;99267.88;5020028;28;20391;-75
2021/03/26 06:35:51;;;;;;;20.63;13.05;;;;;;;7.24;65.14;99260.16;5025347;28;20025;-70
2021/03/26 06:38:24;;;;;;;22.55;11.55;;;;;;;6.51;68.07;99280.66;5019604;28;20698;-71
2021/03/26 06:40:55;;;;;;;17.50;11.30;;;;;;;6.38;69.32;99279.47;5024851;28;20505;-67
2021/03/26 06:44:12;;;;;;;17.10;9.73;;;;;;;6.41;69.34;99276.44;5029831;28;20029;-63
2021/03/26 06:47:15;;;;;;;18.90;10.07;;;;;;;6.51;70.45;99269.91;5011092;28;20083;-70
2021/03/26 06:50:15;;;;;;;26.10;12.00;;;;;;;6.66;69.84;99278.16;5014806;28;20038;-70
2021/03/26 06:53:01;;;;;;;17.58;9.15;;;;;;;6.96;69.65;99265.06;5028163;28;20033;-70
2021/03/26 06:55:42;;;;;;;19.35;8.95;;;;;;;8.06;67.32;99267.97;5030021;28;20029;-69
2021/03/26 06:58:48;;;;;;;17.75;7.25;;;;;;;10.33;60.35;99256.31;5029718;28;20576;-70
2021/03/26 07:01:45;;;;;;;12.65;7.13;;;;;;;11.25;58.90;99255.53;5027520;28;20452;-70
2021/03/26 07:04:40;;;;;;;14.45;7.28;;;;;;;11.66;57.84;99263.72;5025046;28;20060;-70
2021/03/26 07:07:10;;;;;;;18.08;7.18;;;;;;;11.27;58.44;99254.28;5021709;28;20037;-70
2021/03/26 07:09:48;;;;;;;14.60;7.80;;;;;;;10.85;60.72;99263.31;5020730;28;20470;-69
2021/03/26 07:12:26;;;;;;;15.13;7.20;;;;;;;11.61;59.01;99258.91;5022689;28;20549;-70
2021/03/26 07:14:57;;;;;;;12.68;7.80;;;;;;;13.21;55.38;99259.44;5032062;28;20033;-69
2021/03/26 07:17:33;;;;;;;15.95;7.65;;;;;;;13.34;54.29;99264.06;5019670;28;20388;-70
2021/03/26 07:20:07;;;;;;;14.43;7.47;;;;;;;13.94;52.29;99251.19;5016761;28;20114;-70
2021/03/26 07:22:51;;;;;;;9.65;6.90;;;;;;;14.49;50.67;99250.75;5019911;28;20033;-71
2021/03/26 07:25:28;;;;;;;13.13;7.40;;;;;;;14.97;49.67;99252.97;5033527;28;20033;-70
2021/03/26 07:28:17;;;;;;;11.23;7.07;;;;;;;16.70;45.93;99256.59;5028281;28;20029;-70
2021/03/26 07:30:52;;;;;;;10.23;6.72;;;;;;;16.58;46.44;99242.03;5029422;28;20025;-71
2021/03/26 07:33:26;;;;;;;11.70;7.40;;;;;;;15.47;48.06;99242.06;5034841;28;20038;-71
2021/03/26 07:36:03;;;;;;;11.40;7.82;;;;;;;15.02;49.05;99250.41;5037486;28;20048;-73
2021/03/26 07:39:02;;;;;;;13.88;7.78;;;;;;;15.93;47.08;99251.69;5020687;28;20030;-64
2021/03/26 07:41:51;;;;;;;14.73;8.85;;;;;;;17.00;44.76;99237.47;5025750;28;20025;-64
2021/03/26 07:44:38;;;;;;;12.40;7.15;;;;;;;19.70;40.93;99232.19;5042908;28;20045;-72
2021/03/26 07:47:19;;;;;;;9.88;7.05;;;;;;;20.57;39.37;99238.84;5039909;28;20040;-68
2021/03/26 07:50:08;;;;;;;15.23;7.35;;;;;;;19.86;40.15;99247.84;5028682;28;20104;-74
2021/03/26 07:53:18;;;;;;;11.55;6.97;;;;;;;19.74;40.90;99247.09;5030811;28;20017;-72
2021/03/26 07:55:43;;;;;;;18.00;7.68;;;;;;;19.09;42.00;99233.97;5014607;28;20041;-73
2021/03/26 07:58:46;;;;;;;14.25;7.32;;;;;;;19.80;40.26;99228.78;5027280;28;20435;-66
2021/03/26 08:01:28;;;;;;;12.77;7.78;;;;;;;17.94;44.59;99237.50;5025210;28;20091;-67
2021/03/26 08:04:10;;;;;;;15.93;8.60;;;;;;;19.55;40.97;99227.31;5010958;28;20018;-67
2021/03/26 08:07:14;;;;;;;13.88;8.63;;;;;;;21.71;37.62;99216.72;5030861;28;20255;-66
2021/03/26 08:09:49;;;;;;;15.20;7.70;;;;;;;22.62;35.71;99223.75;5027387;28;20041;-68
2021/03/26 08:12:42;;;;;;;11.85;6.97;;;;;;;22.20;35.83;99221.97;5029038;28;20025;-66
2021/03/26 08:15:27;;;;;;;11.13;7.63;;;;;;;22.65;34.90;99225.97;5031827;28;20052;-77
2021/03/26 08:18:03;;;;;;;13.00;7.22;;;;;;;23.22;34.47;99229.66;5038069;28;20155;-67
2021/03/26 08:20:42;;;;;;;12.80;7.60;;;;;;;23.69;33.72;99234.84;5029368;28;20045;-67
2021/03/26 08:23:25;;;;;;;18.13;7.63;;;;;;;22.63;35.51;99226.22;5021779;28;20033;-67
2021/03/26 08:26:15;;;;;;;16.55;7.40;;;;;;;20.21;38.75;99224.66;5033280;28;20554;-69
2021/03/26 08:28:45;;;;;;;12.73;7.95;;;;;;;18.48;41.72;99233.66;5025346;28;20111;-68
2021/03/26 08:31:23;;;;;;;12.75;7.78;;;;;;;19.06;40.33;99224.31;5034584;28;20026;-67
2021/03/26 08:34:06;;;;;;;15.57;7.30;;;;;;;18.76;40.83;99230.13;5025620;28;20112;-68
2021/03/26 08:36:40;;;;;;;12.35;7.70;;;;;;;19.42;40.25;99219.44;5016082;28;20054;-68
2021/03/26 08:39:08;;;;;;;12.02;7.15;;;;;;;20.15;39.07;99228.44;5015186;28;20109;-68
2021/03/26 08:41:41;;;;;;;10.73;7.32;;;;;;;21.30;37.14;99231.00;5032377;28;20134;-68
2021/03/26 08:44:14;;;;;;;14.40;6.97;;;;;;;21.38;36.49;99219.53;5034682;28;20022;-68
2021/03/26 08:46:49;;;;;;;10.45;7.30;;;;;;;21.51;36.39;99231.19;5021082;28;20056;-69
2021/03/26 08:49:24;;;;;;;13.25;7.75;;;;;;;19.32;40.72;99231.06;5014312;28;20026;-69
2021/03/26 08:51:56;;;;;;;13.07;7.25;;;;;;;19.87;39.45;99230.25;5031885;28;20525;-69
2021/03/26 08:54:53;;;;;;;12.98;7.30;;;;;;;19.43;40.59;99229.31;5032876;28;20029;-69
2021/03/26 08:57:26;;;;;;;10.35;7.15;;;;;;;21.09;37.40;99232.78;5032631;28;20041;-69
2021/03/26 09:00:24;;;;;;;12.05;6.85;;;;;;;23.77;33.99;99216.91;5033786;28;20483;-69
2021/03/26 09:03:25;;;;;;;8.47;5.80;;;;;;;24.85;31.68;99212.56;5016069;28;20028;-69
2021/03/26 09:06:09;;;;;;;12.90;6.15;;;;;;;23.27;33.67;99213.91;5034320;28;20276;-69
2021/03/26 09:08:53;;;;;;;10.05;6.30;;;;;;;23.57;33.79;99207.50;5034536;28;20116;-69
2021/03/26 09:11:55;;;;;;;10.40;5.95;;;;;;;24.97;31.62;99211.34;5034646;28;20080;-69
2021/03/26 09:14:58;;;;;;;11.00;6.28;;;;;;;23.39;32.96;99211.69;5025448;28;20037;-69
2021/03/26 09:17:40;;;;;;;16.00;7.13;;;;;;;24.40;32.97;99195.09;5016178;28;20083;-69
2021/03/26 09:20:38;;;;;;;11.95;6.60;;;;;;;25.55;30.90;99203.97;5037374;28;20029;-69
2021/03/26 09:23:39;;;;;;;14.40;6.72;;;;;;;25.86;30.75;99194.50;5033847;28;20025;-70
2021/03/26 09:26:45;;;;;;;14.13;6.45;;;;;;;26.38;29.46;99192.75;5032926;28;20033;-70
2021/03/26 09:29:21;;;;;;;10.50;6.43;;;;;;;25.88;30.19;99179.25;5014057;28;20392;-70
2021/03/26 09:31:56;;;;;;;7.93;5.55;;;;;;;24.60;31.32;99185.91;5014269;28;20418;-67
2021/03/26 09:34:34;;;;;;;15.63;5.93;;;;;;;24.49;31.11;99178.75;5023257;28;20109;-68
2021/03/26 09:37:14;;;;;;;11.43;6.63;;;;;;;23.29;33.09;99161.16;5023949;28;20474;-68
2021/03/26 09:39:41;;;;;;;8.63;4.95;;;;;;;23.16;33.76;99181.88;5031942;28;20140;-67
2021/03/26 09:42:36;;;;;;;9.90;5.40;;;;;;;23.52;32.73;99176.31;5031317;28;20071;-67
2021/03/26 09:45:33;;;;;;;9.45;5.72;;;;;;;23.47;32.85;99177.16;5033140;28;20025;-69
2021/03/26 09:48:01;;;;;;;9.80;5.68;;;;;;;22.53;34.32;99177.41;5035013;28;20091;-67
2021/03/26 09:50:48;;;;;;;8.57;6.05;;;;;;;24.37;32.77;99148.66;5031310;28;20087;-78
2021/03/26 09:53:17;;;;;;;10.73;5.88;;;;;;;25.67;30.45;99158.41;5031225;28;20095;-71
2021/03/26 09:55:44;;;;;;;9.80;5.70;;;;;;;25.64;30.47;99161.75;5025911;28;20026;-69
2021/03/26 09:58:21;;;;;;;10.40;6.20;;;;;;;27.37;28.24;99158.50;5026607;28;20025;-69
2021/03/26 10:01:06;;;;;;;11.27;5.72;;;;;;;26.51;29.05;99144.84;5069406;22;20141;-76
2021/03/26 10:04:10;;;;;;;12.00;5.85;;;;;;;27.51;27.63;99139.06;5030153;28;20501;-74
2021/03/26 10:06:57;;;;;;;9.55;5.38;;;;;;;27.30;27.74;99141.38;5022974;28;20041;-72
2021/03/26 10:12:12;;;;;;;10.50;6.38;;;;;;;28.11;27.72;99130.66;5033679;28;20385;-76
2021/03/26 10:14:44;;;;;;;10.68;6.25;;;;;;;27.25;27.34;99136.78;5001580;28;20184;-78
2021/03/26 10:17:21;;;;;;;12.23;6.70;;;;;;;26.65;28.40;99133.88;5013633;28;20029;-70
2021/03/26 10:19:54;;;;;;;8.63;5.80;;;;;;;27.18;28.06;99124.41;4996315;28;20035;-80
2021/03/26 10:22:32;;;;;;;14.15;7.30;;;;;;;26.50;29.20;99121.00;5004166;28;20529;-73
2021/03/26 10:25:21;;;;;;;11.93;6.65;;;;;;;26.84;28.73;99120.78;5017438;28;20037;-74
2021/03/26 10:27:58;;;;;;;12.05;6.90;;;;;;;25.68;29.41;99119.31;5002822;28;20030;-73
2021/03/26 10:30:46;;;;;;;13.27;6.60;;;;;;;25.42;30.47;99112.41;4997727;28;20036;-74
2021/03/26 10:33:15;;;;;;;14.40;6.90;;;;;;;26.69;28.97;99100.78;5012945;28;20500;-74
2021/03/26 10:35:59;;;;;;;;;;;;;;;27.66;28.49;99099.84;5013014;28;20033;-72
2021/03/26 10:38:44;;;;;;;11.25;6.50;;;;;;;27.73;28.08;99080.78;4996218;28;19920;-74
2021/03/26 10:41:30;;;;;;;13.73;6.80;;;;;;;26.76;28.27;99090.09;5004328;28;20026;-76
2021/03/26 10:44:34;;;;;;;12.95;7.25;;;;;;;26.22;29.35;99078.41;5008528;28;20475;-72
2021/03/26 10:47:12;;;;;;;14.77;7.70;;;;;;;26.65;28.57;99073.63;5006005;28;20042;-76
2021/03/26 10:49:49;;;;;;;15.50;6.77;;;;;;;27.94;27.26;99075.66;5012898;28;20034;-74
2021/03/26 10:52:24;;;;;;;9.52;6.63;;;;;;;28.38;26.82;99079.66;5001756;28;20113;-72
2021/03/26 10:55:04;;;;;;;10.35;6.07;;;;;;;28.88;26.12;99064.81;5013261;28;20037;-72
2021/03/26 10:57:44;;;;;;;10.35;6.40;;;;;;;28.82;26.77;99057.75;5011238;28;20021;-76
2021/03/26 11:00:36;;;;;;;11.52;6.30;;;;;;;29.87;25.53;99047.91;5024834;28;20388;-76
2021/03/26 11:03:11;;;;;;;11.93;6.53;;;;;;;28.22;26.83;99038.59;4994954;28;20105;-79
2021/03/26 11:05:36;;;;;;;12.73;5.85;;;;;;;29.26;26.24;99061.59;5002754;28;20045;-77
2021/03/26 11:08:01;;;;;;;9.35;6.18;;;;;;;28.52;26.35;99054.59;5013499;28;20026;-78
2021/03/26 11:10:36;;;;;;;9.52;6.43;;;;;;;28.92;26.55;99049.09;5016355;28;20065;-72
2021/03/26 11:13:15;;;;;;;11.02;7.22;;;;;;;26.98;27.65;99045.84;5008388;28;20022;-66
2021/03/26 11:15:49;;;;;;;13.10;6.93;;;;;;;27.98;26.85;99036.91;5010290;28;20061;-75
2021/03/26 11:18:26;;;;;;;12.50;7.05;;;;;;;27.17;28.01;99033.81;5004694;28;20026;-70
2021/03/26 11:21:04;;;;;;;11.13;6.63;;;;;;;28.86;26.76;99039.25;5005521;28;20456;-74
2021/03/26 11:23:32;;;;;;;11.05;6.65;;;;;;;30.04;25.36;99030.34;4998522;28;20030;-76
2021/03/26 11:25:57;;;;;;;13.95;7.78;;;;;;;28.86;26.08;99030.91;4996903;28;20080;-71
2021/03/26 11:28:43;;;;;;;11.50;7.43;;;;;;;29.38;25.45;99036.75;4999114;28;20038;-73
2021/03/26 11:31:25;;;;;;;11.55;7.00;;;;;;;28.81;26.71;99022.66;5011172;28;20018;-71
2021/03/26 11:33:56;;;;;;;10.80;6.82;;;;;;;29.39;25.68;99018.03;5012986;28;20021;-71
2021/03/26 11:36:38;;;;;;;10.95;6.90;;;;;;;28.57;25.89;99021.06;5007771;28;20470;-71
2021/03/26 11:39:12;;;;;;;11.27;7.10;;;;;;;27.07;28.12;99007.91;5007285;28;20058;-71
2021/03/26 11:41:45;;;;;;;10.25;6.45;;;;;;;27.98;27.38;99009.09;5004021;28;20109;-71
2021/03/26 11:44:13;;;;;;;9.15;6.45;;;;;;;29.08;26.17;98995.78;5002604;28;20124;-71
2021/03/26 11:46:42;;;;;;;;;;;;;;;29.42;25.81;98992.31;5001042;28;20026;-72
2021/03/26 11:49:33;;;;;;;10.23;6.13;;;;;;;29.38;25.98;98982.97;5001944;28;19913;-72
2021/03/26 11:52:10;;;;;;;12.18;7.07;;;;;;;27.79;27.21;98986.16;5007046;28;20042;-71
2021/03/26 11:55:18;;;;;;;8.35;6.38;;;;;;;28.92;26.25;98976.69;5004709;28;20056;-71
2021/03/26 11:58:00;;;;;;;14.05;6.68;;;;;;;28.27;27.14;98971.69;4994967;28;20668;-72
2021/03/26 12:00:36;;;;;;;10.75;6.75;;;;;;;28.77;25.50;98977.94;5013390;28;20034;-71
2021/03/26 12:03:30;;;;;;;9.82;6.80;;;;;;;27.82;26.70;98966.09;5005413;28;20488;-70
2021/03/26 12:06:18;;;;;;;11.27;6.45;;;;;;;27.66;27.15;98965.59;5006018;28;20034;-75
2021/03/26 12:09:10;;;;;;;12.68;6.57;;;;;;;27.22;27.39;98948.50;5011471;28;20022;-72
2021/03/26 12:11:58;;;;;;;8.88;5.70;;;;;;;25.91;27.97;98959.66;5007272;28;20041;-74
2021/03/26 12:15:02;;;;;;;14.98;7.30;;;;;;;24.48;30.30;98956.66;5024725;28;20027;-72
2021/03/26 12:17:41;;;;;;;11.20;6.07;;;;;;;26.13;28.44;98944.34;5007262;28;20495;-73
2021/03/26 12:20:24;;;;;;;7.95;4.93;;;;;;;27.60;27.17;98951.00;5004506;28;20475;-73
2021/03/26 12:22:58;;;;;;;12.82;5.72;;;;;;;28.39;26.55;98938.53;5014484;28;20030;-73
2021/03/26 12:25:35;;;;;;;9.05;6.78;;;;;;;26.63;27.88;98931.56;5015507;28;20037;-73